Time;durP1;ratioP1;P1;durP2;ratioP2;P2;SDS_P1;SDS_P2;PMS_P1;PMS_P2;Temp;Humidity;BMP_temperature;BMP_pressure;BME280_temperature;BME280_humidity;BME280_pressure;Samples;Min_cycle;Max_cycle;Signal;HPM_P1;HPM_P2
2021/10/01 00:01:05;;;;;;;;;;;22.00;59.10;;;;;;466376;252;1293;-47
2021/10/01 00:03:06;;;;;;;;;;;22.00;59.10;;;;;;466439;252;2221;-46
2021/10/01 00:05:08;;;;;;;;;;;22.00;59.10;;;;;;466684;252;1078;-46
2021/10/01 00:07:09;;;;;;;;;;;22.00;59.10;;;;;;466640;252;1308;-46
2021/10/01 00:09:11;;;;;;;;;;;22.00;59.00;;;;;;466421;252;1101;-47
2021/10/01 00:11:12;;;;;;;;;;;22.00;59.00;;;;;;466766;252;1156;-47
2021/10/01 00:13:13;;;;;;;;;;;22.00;59.00;;;;;;466422;252;1090;-47
2021/10/01 00:15:14;;;;;;;;;;;22.00;59.10;;;;;;466714;252;1141;-47
2021/10/01 00:17:17;;;;;;;;;;;22.00;59.00;;;;;;466425;252;1270;-47
2021/10/01 00:19:18;;;;;;;;;;;22.00;59.10;;;;;;466486;252;1141;-47
2021/10/01 00:21:20;;;;;;;;;;;22.00;59.10;;;;;;466829;252;1492;-47
2021/10/01 00:23:21;;;;;;;;;;;22.00;59.10;;;;;;466823;252;2197;-46
2021/10/01 00:25:22;;;;;;;;;;;22.00;59.10;;;;;;466865;252;1100;-47
2021/10/01 00:27:24;;;;;;;;;;;22.00;59.20;;;;;;466786;252;1310;-47
2021/10/01 00:29:25;;;;;;;;;;;22.00;59.20;;;;;;466532;252;1077;-47
2021/10/01 00:31:26;;;;;;;;;;;21.90;59.10;;;;;;466582;252;1255;-46
2021/10/01 00:33:28;;;;;;;;;;;22.00;59.20;;;;;;466536;252;1225;-47
2021/10/01 00:35:29;;;;;;;;;;;22.00;59.10;;;;;;466842;252;1124;-46
2021/10/01 00:37:30;;;;;;;;;;;22.00;59.00;;;;;;466357;252;1635;-47
2021/10/01 00:39:32;;;;;;;;;;;22.00;59.10;;;;;;466667;252;1126;-46
2021/10/01 00:41:33;;;;;;;;;;;22.00;59.10;;;;;;466581;252;1162;-47
2021/10/01 00:43:34;;;;;;;;;;;22.00;59.00;;;;;;466573;252;2201;-47
2021/10/01 00:45:35;;;;;;;;;;;22.00;59.10;;;;;;466631;252;1138;-47
2021/10/01 00:47:37;;;;;;;;;;;22.00;59.00;;;;;;466401;252;1324;-47
2021/10/01 00:49:38;;;;;;;;;;;22.00;59.10;;;;;;466820;252;1075;-47
2021/10/01 00:51:40;;;;;;;;;;;22.00;59.10;;;;;;466792;252;1163;-47
2021/10/01 00:53:41;;;;;;;;;;;22.00;59.00;;;;;;466632;252;1198;-47
2021/10/01 00:55:42;;;;;;;;;;;22.00;59.00;;;;;;466441;252;1473;-46
2021/10/01 00:57:43;;;;;;;;;;;22.00;59.00;;;;;;466332;252;1470;-47
2021/10/01 00:59:45;;;;;;;;;;;22.00;59.00;;;;;;466403;252;1156;-47
2021/10/01 01:01:46;;;;;;;;;;;21.90;59.10;;;;;;466484;252;1597;-47
2021/10/01 01:03:49;;;;;;;;;;;21.90;59.20;;;;;;466841;252;2122;-47
2021/10/01 01:05:49;;;;;;;;;;;22.00;59.10;;;;;;466390;255;2138;-47
2021/10/01 01:07:50;;;;;;;;;;;22.00;59.00;;;;;;466761;252;1623;-46
2021/10/01 01:09:52;;;;;;;;;;;22.00;59.00;;;;;;466863;252;1207;-47
2021/10/01 01:11:53;;;;;;;;;;;22.00;59.10;;;;;;466461;252;1625;-47
2021/10/01 01:13:54;;;;;;;;;;;21.90;59.10;;;;;;466857;252;1082;-47
2021/10/01 01:15:55;;;;;;;;;;;21.90;59.10;;;;;;466427;252;1207;-46
2021/10/01 01:17:57;;;;;;;;;;;21.90;59.10;;;;;;466359;252;1632;-47
2021/10/01 01:19:58;;;;;;;;;;;22.00;59.10;;;;;;466461;252;1038;-47
2021/10/01 01:21:59;;;;;;;;;;;21.90;59.10;;;;;;466307;252;1517;-47
2021/10/01 01:24:01;;;;;;;;;;;22.00;59.10;;;;;;466385;252;2131;-47
2021/10/01 01:26:02;;;;;;;;;;;22.00;59.00;;;;;;466801;252;1170;-47
2021/10/01 01:28:03;;;;;;;;;;;22.00;59.00;;;;;;466760;252;1194;-47
2021/10/01 01:30:05;;;;;;;;;;;22.00;59.10;;;;;;466672;252;1179;-47
2021/10/01 01:32:06;;;;;;;;;;;22.00;59.00;;;;;;466412;252;1519;-46
2021/10/01 01:34:07;;;;;;;;;;;21.90;59.00;;;;;;466448;252;1074;-47
2021/10/01 01:36:10;;;;;;;;;;;22.00;59.00;;;;;;466616;252;1181;-46
2021/10/01 01:38:10;;;;;;;;;;;22.00;59.00;;;;;;466540;255;2207;-47
2021/10/01 01:40:11;;;;;;;;;;;22.00;59.00;;;;;;466814;252;1105;-47
2021/10/01 01:42:13;;;;;;;;;;;21.90;59.00;;;;;;466729;252;1254;-46
2021/10/01 01:44:14;;;;;;;;;;;22.00;58.90;;;;;;466474;252;2208;-47
2021/10/01 01:46:15;;;;;;;;;;;22.00;59.00;;;;;;466670;252;1213;-47
2021/10/01 01:48:17;;;;;;;;;;;22.00;59.00;;;;;;466469;252;1339;-47
2021/10/01 01:50:18;;;;;;;;;;;22.00;59.00;;;;;;466901;252;1049;-47
2021/10/01 01:52:19;;;;;;;;;;;22.00;58.90;;;;;;466847;252;1205;-47
2021/10/01 01:54:21;;;;;;;;;;;22.00;58.90;;;;;;466765;252;1143;-47
2021/10/01 01:56:22;;;;;;;;;;;22.00;58.90;;;;;;466608;252;1190;-47
2021/10/01 01:58:23;;;;;;;;;;;22.00;58.90;;;;;;466473;252;1282;-47
2021/10/01 02:00:24;;;;;;;;;;;22.00;58.90;;;;;;466923;252;1152;-47
2021/10/01 02:02:26;;;;;;;;;;;22.00;58.90;;;;;;466682;252;1335;-46
2021/10/01 02:04:27;;;;;;;;;;;22.00;59.00;;;;;;466455;252;2200;-47
2021/10/01 02:06:28;;;;;;;;;;;22.00;59.00;;;;;;466436;252;1259;-47
2021/10/01 02:08:30;;;;;;;;;;;21.90;58.90;;;;;;466481;252;1418;-47
2021/10/01 02:10:32;;;;;;;;;;;22.00;58.90;;;;;;466848;252;1260;-47
2021/10/01 02:12:33;;;;;;;;;;;22.00;58.90;;;;;;466429;255;2267;-47
2021/10/01 02:14:34;;;;;;;;;;;22.00;58.80;;;;;;466600;252;1110;-46
2021/10/01 02:16:35;;;;;;;;;;;21.90;58.90;;;;;;466764;252;1350;-46
2021/10/01 02:18:36;;;;;;;;;;;21.90;58.90;;;;;;466526;252;1214;-46
2021/10/01 02:20:38;;;;;;;;;;;21.90;58.90;;;;;;466776;252;1163;-46
2021/10/01 02:22:39;;;;;;;;;;;21.90;58.90;;;;;;466458;252;1178;-46
2021/10/01 02:24:41;;;;;;;;;;;22.00;58.90;;;;;;466820;252;2197;-46
2021/10/01 02:26:42;;;;;;;;;;;22.00;58.90;;;;;;466579;252;1221;-46
2021/10/01 02:28:43;;;;;;;;;;;22.00;58.90;;;;;;466838;252;1089;-46
2021/10/01 02:30:45;;;;;;;;;;;21.90;58.90;;;;;;466541;252;1070;-46
2021/10/01 02:32:46;;;;;;;;;;;21.90;58.90;;;;;;466360;252;1213;-46
2021/10/01 02:34:47;;;;;;;;;;;22.00;58.90;;;;;;466474;252;1263;-45
2021/10/01 02:36:49;;;;;;;;;;;22.00;58.90;;;;;;466539;252;1376;-46
2021/10/01 02:38:52;;;;;;;;;;;22.00;58.90;;;;;;466531;252;1064;-46
2021/10/01 02:40:52;;;;;;;;;;;22.00;58.90;;;;;;466316;252;2271;-46
2021/10/01 02:42:53;;;;;;;;;;;22.00;58.80;;;;;;466644;252;1165;-46
2021/10/01 02:44:54;;;;;;;;;;;22.00;58.80;;;;;;466665;252;2261;-46
2021/10/01 02:46:56;;;;;;;;;;;22.00;58.80;;;;;;466531;252;1213;-45
2021/10/01 02:48:57;;;;;;;;;;;22.00;58.60;;;;;;466453;252;1258;-46
2021/10/01 02:50:58;;;;;;;;;;;22.00;58.70;;;;;;466471;252;1489;-46
2021/10/01 02:53:00;;;;;;;;;;;21.90;58.80;;;;;;466767;252;1203;-46
2021/10/01 02:55:01;;;;;;;;;;;21.90;58.90;;;;;;466617;252;1108;-46
2021/10/01 02:57:03;;;;;;;;;;;22.00;58.90;;;;;;466541;252;1271;-46
2021/10/01 02:59:04;;;;;;;;;;;21.90;58.90;;;;;;466496;252;1233;-46
2021/10/01 03:01:06;;;;;;;;;;;21.90;58.90;;;;;;466464;252;1479;-46
2021/10/01 03:03:07;;;;;;;;;;;22.00;58.90;;;;;;466676;252;2192;-46
2021/10/01 03:05:08;;;;;;;;;;;21.90;58.80;;;;;;466505;252;1064;-46
2021/10/01 03:07:10;;;;;;;;;;;21.90;58.90;;;;;;466397;252;1141;-46
2021/10/01 03:09:11;;;;;;;;;;;21.90;58.90;;;;;;466451;252;1150;-46
2021/10/01 03:11:13;;;;;;;;;;;21.90;58.90;;;;;;466412;252;1150;-46
2021/10/01 03:13:14;;;;;;;;;;;21.90;58.90;;;;;;466647;252;2345;-46
2021/10/01 03:15:15;;;;;;;;;;;21.90;58.90;;;;;;466648;252;1055;-46
2021/10/01 03:17:17;;;;;;;;;;;21.90;58.90;;;;;;466514;252;1347;-46
2021/10/01 03:19:22;;;;;;;;;;;21.90;58.90;;;;;;466470;252;1954;-46
2021/10/01 03:21:19;;;;;;;;;;;21.90;58.90;;;;;;466232;255;2042;-46
2021/10/01 03:23:20;;;;;;;;;;;21.90;58.90;;;;;;466842;252;2205;-46
2021/10/01 03:25:22;;;;;;;;;;;21.90;58.90;;;;;;466417;252;1479;-46
2021/10/01 03:27:24;;;;;;;;;;;21.90;58.90;;;;;;466676;252;1223;-46
2021/10/01 03:29:24;;;;;;;;;;;21.90;58.80;;;;;;466448;255;1973;-46
2021/10/01 03:31:26;;;;;;;;;;;21.90;58.80;;;;;;466572;252;1482;-46
2021/10/01 03:33:28;;;;;;;;;;;21.90;58.90;;;;;;466399;252;1224;-46
2021/10/01 03:35:30;;;;;;;;;;;21.90;59.00;;;;;;466551;252;1424;-46
2021/10/01 03:37:30;;;;;;;;;;;21.90;58.90;;;;;;466376;252;2244;-46
2021/10/01 03:39:32;;;;;;;;;;;21.90;58.90;;;;;;466494;252;1250;-46
2021/10/01 03:41:33;;;;;;;;;;;21.90;58.90;;;;;;466392;252;1174;-45
2021/10/01 03:43:34;;;;;;;;;;;21.90;58.90;;;;;;466654;252;2204;-46
2021/10/01 03:45:36;;;;;;;;;;;21.90;58.90;;;;;;466771;252;1280;-46
2021/10/01 03:47:37;;;;;;;;;;;21.90;58.90;;;;;;466813;252;1223;-46
2021/10/01 03:49:38;;;;;;;;;;;21.90;58.90;;;;;;466557;252;1249;-46
2021/10/01 03:51:40;;;;;;;;;;;21.80;58.90;;;;;;466805;252;1455;-46
2021/10/01 03:53:41;;;;;;;;;;;21.90;59.00;;;;;;466791;252;1037;-46
2021/10/01 03:55:42;;;;;;;;;;;21.90;58.80;;;;;;466834;252;1082;-46
2021/10/01 03:57:44;;;;;;;;;;;21.90;58.90;;;;;;466781;252;1192;-46
2021/10/01 03:59:45;;;;;;;;;;;21.80;58.90;;;;;;466491;252;1071;-46
2021/10/01 04:01:46;;;;;;;;;;;21.90;58.90;;;;;;466723;252;1055;-47
2021/10/01 04:03:48;;;;;;;;;;;21.90;59.00;;;;;;466385;252;2209;-47
2021/10/01 04:05:49;;;;;;;;;;;21.80;58.80;;;;;;466631;252;1223;-47
2021/10/01 04:07:50;;;;;;;;;;;21.80;58.90;;;;;;466608;252;1390;-47
2021/10/01 04:09:51;;;;;;;;;;;21.80;59.00;;;;;;466447;252;1067;-46
2021/10/01 04:11:54;;;;;;;;;;;21.90;59.00;;;;;;466420;252;1336;-47
2021/10/01 04:13:54;;;;;;;;;;;21.90;58.90;;;;;;466296;255;2248;-47
2021/10/01 04:15:56;;;;;;;;;;;21.90;58.90;;;;;;466358;252;1221;-45
2021/10/01 04:17:57;;;;;;;;;;;21.90;58.90;;;;;;466405;252;1208;-46
2021/10/01 04:19:58;;;;;;;;;;;21.80;58.90;;;;;;466426;252;1230;-46
2021/10/01 04:22:00;;;;;;;;;;;21.80;58.90;;;;;;466524;252;1498;-46
2021/10/01 04:24:01;;;;;;;;;;;21.80;58.90;;;;;;466389;252;2126;-46
2021/10/01 04:26:02;;;;;;;;;;;21.80;58.90;;;;;;466347;252;1185;-46
2021/10/01 04:28:04;;;;;;;;;;;21.90;58.80;;;;;;466373;252;1388;-46
2021/10/01 04:30:05;;;;;;;;;;;21.90;58.80;;;;;;466718;252;1108;-46
2021/10/01 04:32:07;;;;;;;;;;;21.80;58.80;;;;;;466328;252;1582;-46
2021/10/01 04:34:07;;;;;;;;;;;21.80;58.90;;;;;;466338;255;2101;-45
2021/10/01 04:36:09;;;;;;;;;;;21.80;58.80;;;;;;466602;252;1485;-46
2021/10/01 04:38:10;;;;;;;;;;;21.80;58.80;;;;;;466460;252;1170;-46
2021/10/01 04:40:12;;;;;;;;;;;21.90;58.80;;;;;;466662;252;1146;-46
2021/10/01 04:42:13;;;;;;;;;;;21.80;58.80;;;;;;466263;252;1449;-46
2021/10/01 04:44:14;;;;;;;;;;;21.80;58.90;;;;;;466260;252;2201;-46
2021/10/01 04:46:15;;;;;;;;;;;21.90;58.80;;;;;;466365;252;1525;-46
2021/10/01 04:48:17;;;;;;;;;;;21.90;58.80;;;;;;466519;252;1071;-46
2021/10/01 04:50:18;;;;;;;;;;;21.90;58.70;;;;;;466388;252;1226;-46
2021/10/01 04:52:20;;;;;;;;;;;21.90;58.70;;;;;;466342;252;1208;-46
2021/10/01 04:54:21;;;;;;;;;;;21.90;58.70;;;;;;466358;252;1125;-46
2021/10/01 04:56:22;;;;;;;;;;;21.90;58.70;;;;;;466513;252;1216;-46
2021/10/01 04:58:23;;;;;;;;;;;21.90;58.80;;;;;;466483;252;1263;-46
2021/10/01 05:00:25;;;;;;;;;;;21.90;58.80;;;;;;466493;252;1233;-45
2021/10/01 05:02:26;;;;;;;;;;;21.90;58.80;;;;;;466425;252;1227;-46
2021/10/01 05:04:27;;;;;;;;;;;21.90;58.70;;;;;;466310;252;2134;-46
2021/10/01 05:06:29;;;;;;;;;;;21.90;58.70;;;;;;466288;252;1238;-46
2021/10/01 05:08:30;;;;;;;;;;;21.90;58.70;;;;;;466456;252;1111;-46
2021/10/01 05:10:31;;;;;;;;;;;21.90;58.70;;;;;;466408;252;1413;-46
2021/10/01 05:12:33;;;;;;;;;;;21.90;58.60;;;;;;466387;252;1199;-46
2021/10/01 05:14:34;;;;;;;;;;;21.90;58.70;;;;;;466155;252;1133;-46
2021/10/01 05:16:35;;;;;;;;;;;21.80;58.70;;;;;;466357;252;1311;-46
2021/10/01 05:18:36;;;;;;;;;;;21.90;58.60;;;;;;466640;252;1092;-47
2021/10/01 05:20:38;;;;;;;;;;;21.90;58.70;;;;;;466204;252;1334;-47
2021/10/01 05:22:39;;;;;;;;;;;21.80;58.70;;;;;;466188;252;1186;-46
2021/10/01 05:24:41;;;;;;;;;;;21.90;58.70;;;;;;466333;252;2206;-46
2021/10/01 05:26:42;;;;;;;;;;;21.90;58.60;;;;;;466214;252;1214;-45
2021/10/01 05:28:44;;;;;;;;;;;21.90;58.60;;;;;;466291;252;1155;-46
2021/10/01 05:30:45;;;;;;;;;;;21.90;58.60;;;;;;466209;252;1226;-46
2021/10/01 05:32:46;;;;;;;;;;;21.90;58.60;;;;;;466192;252;1193;-46
2021/10/01 05:34:48;;;;;;;;;;;21.90;58.60;;;;;;466382;252;1126;-46
2021/10/01 05:36:49;;;;;;;;;;;21.90;58.50;;;;;;466116;252;1251;-46
2021/10/01 05:38:51;;;;;;;;;;;21.90;58.50;;;;;;466094;252;1111;-45
2021/10/01 05:40:52;;;;;;;;;;;21.90;58.50;;;;;;466098;252;1357;-46
2021/10/01 05:42:53;;;;;;;;;;;21.90;58.60;;;;;;466072;252;1248;-45
2021/10/01 05:44:55;;;;;;;;;;;21.80;58.60;;;;;;466056;252;2204;-45
2021/10/01 05:46:59;;;;;;;;;;;21.90;58.60;;;;;;466094;252;1617;-47
2021/10/01 05:49:00;;;;;;;;;;;21.90;58.50;;;;;;466057;255;2526;-47
2021/10/01 05:51:04;;;;;;;;;;;21.90;58.60;;;;;;466163;255;2224;-47
2021/10/01 05:53:02;;;;;;;;;;;21.90;58.50;;;;;;465785;255;1364;-47
2021/10/01 05:55:01;;;;;;;;;;;21.90;58.50;;;;;;465971;255;2402;-47
2021/10/01 05:57:03;;;;;;;;;;;21.90;58.60;;;;;;466098;252;1162;-47
2021/10/01 05:59:04;;;;;;;;;;;21.90;58.60;;;;;;466059;252;1150;-46
2021/10/01 06:01:05;;;;;;;;;;;21.90;58.60;;;;;;465967;252;1589;-46
2021/10/01 06:03:07;;;;;;;;;;;21.90;58.60;;;;;;465975;252;1216;-45
2021/10/01 06:05:08;;;;;;;;;;;21.90;58.50;;;;;;466011;252;2205;-45
2021/10/01 06:07:10;;;;;;;;;;;21.90;58.60;;;;;;466274;252;1258;-46
2021/10/01 06:09:12;;;;;;;;;;;21.90;58.60;;;;;;466059;252;1350;-46
2021/10/01 06:11:12;;;;;;;;;;;21.90;58.60;;;;;;465940;252;2181;-46
2021/10/01 06:13:13;;;;;;;;;;;21.90;58.60;;;;;;465906;252;1606;-46
2021/10/01 06:15:15;;;;;;;;;;;21.80;58.50;;;;;;465879;252;1155;-47
2021/10/01 06:17:16;;;;;;;;;;;21.90;58.50;;;;;;466024;252;2087;-46
2021/10/01 06:19:17;;;;;;;;;;;21.90;58.50;;;;;;466265;252;1130;-46
2021/10/01 06:21:18;;;;;;;;;;;21.80;58.50;;;;;;466046;252;1267;-46
2021/10/01 06:23:22;;;;;;;;;;;21.80;58.50;;;;;;466038;252;1147;-46
2021/10/01 06:25:22;;;;;;;;;;;21.90;58.60;;;;;;465906;255;2177;-46
2021/10/01 06:27:22;;;;;;;;;;;21.80;58.60;;;;;;466084;252;2511;-47
2021/10/01 06:29:24;;;;;;;;;;;21.90;58.60;;;;;;466264;252;1254;-45
2021/10/01 06:31:25;;;;;;;;;;;21.90;58.50;;;;;;466093;252;1124;-46
2021/10/01 06:33:26;;;;;;;;;;;21.80;58.50;;;;;;465931;252;1299;-46
2021/10/01 06:35:28;;;;;;;;;;;21.80;58.50;;;;;;465995;252;1224;-46
2021/10/01 06:37:29;;;;;;;;;;;21.90;58.50;;;;;;465915;252;1171;-45
2021/10/01 06:39:30;;;;;;;;;;;21.80;58.40;;;;;;465845;252;1256;-45
2021/10/01 06:41:32;;;;;;;;;;;21.90;58.50;;;;;;465966;252;1300;-46
2021/10/01 06:43:33;;;;;;;;;;;21.90;58.50;;;;;;465949;252;1596;-46
2021/10/01 06:45:35;;;;;;;;;;;21.90;58.50;;;;;;465898;252;2201;-46
2021/10/01 06:47:44;;;;;;;;;;;21.80;58.50;;;;;;465822;252;2299;-46
2021/10/01 06:49:43;;;;;;;;;;;21.80;58.50;;;;;;465323;255;2144;-46
2021/10/01 06:51:57;;;;;;;;;;;21.80;58.50;;;;;;465671;255;1815;-46
2021/10/01 08:20:11;;;;;;;;;;;21.90;58.40;;;;;;465729;255;1330;-46
2021/10/01 08:22:13;;;;;;;;;;;21.80;58.40;;;;;;465542;252;1279;-46
2021/10/01 08:24:14;;;;;;;;;;;21.80;58.40;;;;;;465618;252;1236;-46
2021/10/01 08:26:16;;;;;;;;;;;21.80;58.40;;;;;;465647;252;2134;-46
2021/10/01 08:28:17;;;;;;;;;;;21.80;58.50;;;;;;465536;252;1339;-46
2021/10/01 08:30:18;;;;;;;;;;;21.90;58.40;;;;;;465644;252;1210;-46
2021/10/01 08:32:19;;;;;;;;;;;21.80;58.40;;;;;;465632;252;1321;-45
2021/10/01 08:34:21;;;;;;;;;;;21.80;58.50;;;;;;465668;252;1189;-46
2021/10/01 08:36:22;;;;;;;;;;;21.80;58.40;;;;;;465745;252;1216;-46
2021/10/01 08:38:23;;;;;;;;;;;21.80;58.40;;;;;;465716;252;1240;-45
2021/10/01 08:40:25;;;;;;;;;;;21.80;58.50;;;;;;465758;252;1156;-46
2021/10/01 08:42:26;;;;;;;;;;;21.90;58.40;;;;;;465760;252;1244;-46
2021/10/01 08:44:28;;;;;;;;;;;21.90;58.40;;;;;;465760;252;1157;-46
2021/10/01 08:46:30;;;;;;;;;;;21.90;58.40;;;;;;465772;252;2197;-45
2021/10/01 08:48:31;;;;;;;;;;;21.90;58.40;;;;;;465874;252;1957;-46
2021/10/01 08:50:32;;;;;;;;;;;21.90;58.40;;;;;;465716;252;1203;-46
2021/10/01 08:52:33;;;;;;;;;;;21.90;58.30;;;;;;466097;252;1169;-46
2021/10/01 08:54:35;;;;;;;;;;;21.90;58.30;;;;;;466277;252;1052;-46
2021/10/01 08:56:36;;;;;;;;;;;21.90;58.30;;;;;;466195;252;1253;-45
2021/10/01 08:58:37;;;;;;;;;;;21.90;58.40;;;;;;465641;252;1542;-46
2021/10/01 09:00:39;;;;;;;;;;;21.80;58.40;;;;;;465739;252;1326;-46
2021/10/01 09:02:40;;;;;;;;;;;21.80;58.40;;;;;;465584;252;1091;-46
2021/10/01 09:04:41;;;;;;;;;;;21.80;58.40;;;;;;465566;252;1155;-46
2021/10/01 09:06:45;;;;;;;;;;;21.80;58.50;;;;;;465683;252;2212;-46
2021/10/01 09:08:44;;;;;;;;;;;21.90;58.40;;;;;;465282;255;2112;-45
2021/10/01 09:10:46;;;;;;;;;;;21.90;58.40;;;;;;466413;252;1118;-46
2021/10/01 09:12:47;;;;;;;;;;;21.90;58.40;;;;;;465935;252;1463;-47
2021/10/01 09:14:48;;;;;;;;;;;21.90;58.30;;;;;;465459;252;1238;-47
2021/10/01 09:16:50;;;;;;;;;;;21.90;58.40;;;;;;465744;252;1326;-47
2021/10/01 09:18:51;;;;;;;;;;;21.90;58.30;;;;;;465805;252;1217;-47
2021/10/01 09:20:52;;;;;;;;;;;21.90;58.20;;;;;;465809;252;1252;-47
2021/10/01 09:22:53;;;;;;;;;;;21.90;58.30;;;;;;465416;252;1234;-47
2021/10/01 09:24:55;;;;;;;;;;;21.90;58.30;;;;;;465499;252;1175;-47
2021/10/01 09:26:56;;;;;;;;;;;21.90;58.40;;;;;;465607;252;2200;-46
2021/10/01 09:28:57;;;;;;;;;;;21.80;58.40;;;;;;465716;252;1232;-47
2021/10/01 09:30:59;;;;;;;;;;;21.90;58.30;;;;;;465750;252;1357;-47
2021/10/01 09:33:00;;;;;;;;;;;21.90;58.20;;;;;;466103;252;1291;-47
2021/10/01 09:35:01;;;;;;;;;;;21.90;58.30;;;;;;465738;252;1242;-47
2021/10/01 09:37:03;;;;;;;;;;;21.90;58.30;;;;;;465539;252;1490;-46
2021/10/01 09:39:04;;;;;;;;;;;21.90;58.40;;;;;;465734;252;1227;-47
2021/10/01 09:41:05;;;;;;;;;;;21.90;58.30;;;;;;465810;252;1373;-47
2021/10/01 09:43:08;;;;;;;;;;;21.90;58.30;;;;;;465928;252;1133;-47
2021/10/01 09:45:08;;;;;;;;;;;21.90;58.30;;;;;;465842;255;2242;-47
2021/10/01 09:47:10;;;;;;;;;;;21.90;58.30;;;;;;465636;252;2197;-46
2021/10/01 09:49:14;;;;;;;;;;;21.90;58.40;;;;;;465801;252;1169;-47
2021/10/01 09:51:12;;;;;;;;;;;21.90;58.30;;;;;;465589;255;2042;-47
2021/10/01 09:53:14;;;;;;;;;;;21.90;58.40;;;;;;465653;252;1575;-47
2021/10/01 09:55:15;;;;;;;;;;;21.80;58.40;;;;;;465576;252;1211;-47
2021/10/01 09:57:16;;;;;;;;;;;21.90;58.40;;;;;;465860;252;1331;-47
2021/10/01 09:59:18;;;;;;;;;;;21.90;58.40;;;;;;465697;252;1171;-47
2021/10/01 10:01:19;;;;;;;;;;;21.90;58.40;;;;;;465766;252;2143;-46
2021/10/01 10:03:20;;;;;;;;;;;21.90;58.40;;;;;;465787;252;1295;-47
2021/10/01 10:05:22;;;;;;;;;;;21.90;58.30;;;;;;465671;252;2209;-46
2021/10/01 10:07:23;;;;;;;;;;;21.90;58.20;;;;;;466145;252;1152;-45
2021/10/01 10:09:24;;;;;;;;;;;21.90;58.20;;;;;;465737;252;1222;-46
2021/10/01 10:11:25;;;;;;;;;;;21.90;58.20;;;;;;465870;252;1394;-46
2021/10/01 10:13:27;;;;;;;;;;;21.90;58.30;;;;;;465887;252;1221;-46
2021/10/01 10:15:28;;;;;;;;;;;21.90;58.30;;;;;;465936;252;1329;-46
2021/10/01 10:17:30;;;;;;;;;;;21.90;58.40;;;;;;465805;252;1171;-46
2021/10/01 10:19:31;;;;;;;;;;;21.90;58.30;;;;;;465922;252;1181;-46
2021/10/01 10:21:32;;;;;;;;;;;21.90;58.30;;;;;;465850;252;1183;-46
2021/10/01 10:23:34;;;;;;;;;;;21.90;58.40;;;;;;465487;252;1233;-46
2021/10/01 10:25:35;;;;;;;;;;;21.90;58.30;;;;;;465595;252;2138;-46
2021/10/01 10:27:36;;;;;;;;;;;21.90;58.40;;;;;;465847;252;1232;-46
2021/10/01 10:29:38;;;;;;;;;;;21.90;58.40;;;;;;465890;252;1124;-46
2021/10/01 10:31:39;;;;;;;;;;;21.90;58.40;;;;;;465828;252;1392;-46
2021/10/01 10:33:40;;;;;;;;;;;21.90;58.30;;;;;;465729;252;1125;-47
2021/10/01 10:35:41;;;;;;;;;;;21.90;58.30;;;;;;465780;252;1276;-46
2021/10/01 10:37:43;;;;;;;;;;;21.90;58.40;;;;;;465584;252;1235;-46
2021/10/01 10:39:44;;;;;;;;;;;21.90;58.30;;;;;;465634;252;1200;-46
2021/10/01 10:41:45;;;;;;;;;;;21.90;58.30;;;;;;465565;252;1219;-46
2021/10/01 10:43:47;;;;;;;;;;;21.90;58.30;;;;;;465851;252;1120;-45
2021/10/01 10:45:49;;;;;;;;;;;21.90;58.20;;;;;;465783;252;2158;-46
2021/10/01 10:47:49;;;;;;;;;;;21.90;58.20;;;;;;465720;252;2132;-46
2021/10/01 10:49:51;;;;;;;;;;;21.90;58.20;;;;;;465760;252;1129;-46
2021/10/01 10:51:52;;;;;;;;;;;21.90;58.30;;;;;;465612;255;1339;-46
2021/10/01 10:53:54;;;;;;;;;;;21.90;58.30;;;;;;465736;252;1297;-46
2021/10/01 10:55:55;;;;;;;;;;;21.90;58.30;;;;;;465696;252;1221;-46
2021/10/01 10:57:56;;;;;;;;;;;21.90;58.30;;;;;;459413;252;117229;-46
2021/10/01 10:59:59;;;;;;;;;;;21.90;58.20;;;;;;457910;260;1079;-46
2021/10/01 11:02:00;;;;;;;;;;;21.90;58.30;;;;;;457760;258;1201;-46
2021/10/01 11:04:01;;;;;;;;;;;21.80;58.40;;;;;;457790;258;1236;-46
2021/10/01 11:06:02;;;;;;;;;;;21.90;58.30;;;;;;457856;258;2206;-46
2021/10/01 11:08:04;;;;;;;;;;;21.90;58.20;;;;;;457836;258;1298;-46
2021/10/01 11:10:05;;;;;;;;;;;21.90;58.30;;;;;;457770;258;1227;-46
2021/10/01 11:12:06;;;;;;;;;;;21.90;58.30;;;;;;457737;258;1232;-46
2021/10/01 11:14:08;;;;;;;;;;;21.90;58.20;;;;;;457690;259;1156;-46
2021/10/01 11:16:09;;;;;;;;;;;21.90;58.40;;;;;;457944;258;1210;-45
2021/10/01 11:18:10;;;;;;;;;;;21.90;58.30;;;;;;458056;259;1623;-46
2021/10/01 11:20:12;;;;;;;;;;;21.90;58.30;;;;;;458383;258;1189;-46
2021/10/01 11:22:13;;;;;;;;;;;21.90;58.30;;;;;;457612;254;2329;-46
2021/10/01 11:24:14;;;;;;;;;;;21.80;58.20;;;;;;457960;258;1219;-46
2021/10/01 11:26:16;;;;;;;;;;;21.90;58.40;;;;;;457773;258;2217;-46
2021/10/01 11:28:17;;;;;;;;;;;21.80;58.30;;;;;;457951;256;1207;-46
2021/10/01 11:30:18;;;;;;;;;;;21.80;58.40;;;;;;457790;258;1246;-46
2021/10/01 11:32:19;;;;;;;;;;;21.80;58.40;;;;;;457769;258;1277;-46
2021/10/01 11:34:21;;;;;;;;;;;21.90;58.40;;;;;;457630;258;1189;-46
2021/10/01 11:36:22;;;;;;;;;;;21.90;58.40;;;;;;457603;259;1405;-46
2021/10/01 11:38:23;;;;;;;;;;;21.90;58.40;;;;;;457831;258;1332;-46
2021/10/01 11:40:25;;;;;;;;;;;21.90;58.30;;;;;;457774;258;1251;-47
2021/10/01 11:42:26;;;;;;;;;;;21.90;58.30;;;;;;457748;258;1265;-45
2021/10/01 11:44:28;;;;;;;;;;;21.90;58.30;;;;;;457698;259;1279;-46
2021/10/01 11:46:29;;;;;;;;;;;21.90;58.30;;;;;;457584;258;2217;-46
2021/10/01 11:48:30;;;;;;;;;;;21.90;58.30;;;;;;457554;259;1232;-45
2021/10/01 11:50:32;;;;;;;;;;;21.90;58.30;;;;;;457568;258;1466;-46
2021/10/01 11:52:33;;;;;;;;;;;21.90;58.30;;;;;;457515;258;1316;-45
2021/10/01 11:54:34;;;;;;;;;;;21.90;58.30;;;;;;457598;259;1198;-46
2021/10/01 11:56:36;;;;;;;;;;;21.90;58.30;;;;;;457598;258;1270;-46
2021/10/01 11:58:37;;;;;;;;;;;21.90;58.20;;;;;;457806;259;1193;-46
2021/10/01 12:00:38;;;;;;;;;;;21.90;58.20;;;;;;457768;258;1324;-46
2021/10/01 12:02:40;;;;;;;;;;;21.90;58.20;;;;;;457808;258;1212;-45
2021/10/01 12:04:41;;;;;;;;;;;21.90;58.20;;;;;;457827;258;1130;-46
2021/10/01 12:06:42;;;;;;;;;;;21.90;58.20;;;;;;458027;256;2210;-46
2021/10/01 12:08:44;;;;;;;;;;;21.90;58.20;;;;;;457982;259;1076;-46
2021/10/01 12:10:46;;;;;;;;;;;21.90;58.20;;;;;;457554;259;1199;-46
2021/10/01 12:12:46;;;;;;;;;;;21.90;58.20;;;;;;458435;254;2141;-46
2021/10/01 12:14:47;;;;;;;;;;;21.90;58.20;;;;;;458435;258;909;-45
2021/10/01 12:16:49;;;;;;;;;;;21.90;58.20;;;;;;457763;259;1247;-46
2021/10/01 12:18:57;;;;;;;;;;;21.90;58.30;;;;;;457867;258;1124;-46
2021/10/01 12:20:59;;;;;;;;;;;21.90;58.30;;;;;;457877;258;1243;-46
2021/10/01 12:23:01;;;;;;;;;;;21.90;58.30;;;;;;457788;259;1137;-46
2021/10/01 12:25:02;;;;;;;;;;;21.90;58.30;;;;;;457755;257;5044;-46
2021/10/01 12:27:03;;;;;;;;;;;21.90;58.20;;;;;;457756;259;2197;-46
2021/10/01 12:29:05;;;;;;;;;;;21.90;58.30;;;;;;457648;258;1208;-46
2021/10/01 12:31:06;;;;;;;;;;;21.90;58.20;;;;;;457646;258;1405;-46
2021/10/01 12:33:09;;;;;;;;;;;21.90;58.30;;;;;;457717;258;1164;-46
2021/10/01 12:35:09;;;;;;;;;;;21.90;58.30;;;;;;457760;254;2138;-45
2021/10/01 12:37:10;;;;;;;;;;;21.90;58.20;;;;;;457798;258;1189;-46
2021/10/01 12:39:11;;;;;;;;;;;21.90;58.20;;;;;;457818;258;1271;-46
2021/10/01 12:41:13;;;;;;;;;;;21.90;58.30;;;;;;457774;258;1230;-46
2021/10/01 12:43:14;;;;;;;;;;;21.90;58.20;;;;;;457968;258;1089;-46
2021/10/01 12:45:15;;;;;;;;;;;21.90;58.20;;;;;;457637;259;1522;-46
2021/10/01 12:47:17;;;;;;;;;;;21.90;58.20;;;;;;457706;258;2202;-45
2021/10/01 12:49:18;;;;;;;;;;;21.90;58.30;;;;;;458004;258;1063;-46
2021/10/01 12:51:19;;;;;;;;;;;21.90;58.20;;;;;;457830;259;1156;-46
2021/10/01 12:53:21;;;;;;;;;;;21.90;58.30;;;;;;457941;258;1413;-46
2021/10/01 12:55:22;;;;;;;;;;;21.90;58.20;;;;;;457751;259;1375;-46
2021/10/01 12:57:23;;;;;;;;;;;21.90;58.20;;;;;;457833;258;1228;-46
2021/10/01 12:59:25;;;;;;;;;;;21.90;58.10;;;;;;457842;258;2418;-45
2021/10/01 13:01:26;;;;;;;;;;;21.90;58.20;;;;;;457820;259;1427;-46
2021/10/01 13:03:27;;;;;;;;;;;21.90;58.20;;;;;;457929;258;1155;-46
2021/10/01 13:05:29;;;;;;;;;;;21.90;58.20;;;;;;457862;259;1154;-46
2021/10/01 13:07:30;;;;;;;;;;;21.90;58.20;;;;;;457889;258;2214;-46
2021/10/01 13:09:31;;;;;;;;;;;21.90;58.20;;;;;;457817;258;1109;-46
2021/10/01 13:11:33;;;;;;;;;;;21.90;58.20;;;;;;457787;258;1340;-46
2021/10/01 13:13:34;;;;;;;;;;;21.80;58.30;;;;;;457772;259;1235;-46
2021/10/01 13:15:35;;;;;;;;;;;21.90;58.30;;;;;;457898;258;1075;-46
2021/10/01 13:17:37;;;;;;;;;;;21.90;58.20;;;;;;457761;259;1301;-42
2021/10/01 13:19:38;;;;;;;;;;;21.90;58.20;;;;;;457865;258;1113;-46
2021/10/01 13:21:39;;;;;;;;;;;21.90;58.10;;;;;;457704;255;1181;-46
2021/10/01 13:23:41;;;;;;;;;;;21.90;58.20;;;;;;457796;259;1161;-46